Time;durP1;ratioP1;P1;durP2;ratioP2;P2;SDS_P1;SDS_P2;PMS_P1;PMS_P2;Temp;Humidity;BMP_temperature;BMP_pressure;BME280_temperature;BME280_humidity;BME280_pressure;Samples;Min_cycle;Max_cycle;Signal;HPM_P1;HPM_P2
2021/01/31 00:01:14;;;;;;;16.23;5.13;;;;;;;11.56;87.00;99047.53;5035330;28;20045;-73
2021/01/31 00:03:41;;;;;;;19.88;5.15;;;;;;;11.48;86.45;99052.09;5053088;28;20041;-73
2021/01/31 00:06:08;;;;;;;17.20;4.32;;;;;;;11.52;86.08;99052.16;5053071;28;20515;-75
2021/01/31 00:13:14;;;;;;;19.17;5.15;;;;;;;11.68;84.98;99052.97;5052216;28;20055;-75
2021/01/31 00:15:44;;;;;;;16.58;5.13;;;;;;;11.71;85.15;99053.03;5034538;28;20057;-75
2021/01/31 00:18:12;;;;;;;18.98;4.75;;;;;;;11.65;85.34;99042.63;5053639;28;20049;-76
2021/01/31 00:20:43;;;;;;;14.82;4.32;;;;;;;11.67;85.47;99059.63;5056802;28;20044;-76
2021/01/31 00:23:10;;;;;;;19.00;4.80;;;;;;;11.62;85.38;99052.41;5055363;28;20068;-76
2021/01/31 00:25:37;;;;;;;22.27;5.03;;;;;;;11.71;84.55;99055.78;5056195;28;20068;-75
2021/01/31 00:28:05;;;;;;;16.92;4.53;;;;;;;11.52;84.98;99052.16;5056066;28;20515;-76
2021/01/31 00:30:35;;;;;;;21.45;5.28;;;;;;;11.46;85.61;99061.88;5056394;28;20060;-76
2021/01/31 00:33:07;;;;;;;21.63;4.55;;;;;;;11.60;85.59;99065.75;5056688;28;20056;-74
2021/01/31 00:35:37;;;;;;;16.30;4.63;;;;;;;11.69;84.57;99065.56;5055678;28;20068;-74
2021/01/31 00:38:05;;;;;;;22.75;4.82;;;;;;;11.68;84.70;99070.28;5038835;28;20045;-75
2021/01/31 00:40:32;;;;;;;18.80;5.07;;;;;;;11.55;84.99;99066.03;5056511;28;20041;-77
2021/01/31 00:42:59;;;;;;;18.23;4.35;;;;;;;11.48;85.03;99076.91;5038180;28;20072;-74
2021/01/31 00:45:27;;;;;;;19.55;4.82;;;;;;;11.71;84.53;99074.28;5038300;28;20051;-75
2021/01/31 00:47:55;;;;;;;16.92;4.47;;;;;;;11.74;84.17;99066.09;5055077;28;20060;-76
2021/01/31 00:50:29;;;;;;;15.95;4.13;;;;;;;11.59;84.59;99072.44;5038704;28;20045;-74
2021/01/31 00:53:04;;;;;;;16.20;4.18;;;;;;;11.66;84.46;99069.88;5022173;28;20057;-75
2021/01/31 00:55:31;;;;;;;19.33;4.38;;;;;;;11.58;85.38;99068.06;5038152;28;20048;-74
2021/01/31 00:57:58;;;;;;;25.08;5.32;;;;;;;11.64;84.56;99079.63;5054395;28;20499;-75
2021/01/31 01:00:33;;;;;;;14.35;4.00;;;;;;;11.78;84.14;99077.22;5037426;28;20500;-75
2021/01/31 01:03:04;;;;;;;15.95;3.85;;;;;;;11.67;84.43;99087.19;5037600;28;20044;-72
2021/01/31 01:05:51;;;;;;;16.52;4.20;;;;;;;11.73;83.97;99089.34;5038146;28;20052;-75
2021/01/31 01:08:18;;;;;;;17.30;4.50;;;;;;;11.79;83.74;99092.59;5055882;28;20052;-76
2021/01/31 01:10:46;;;;;;;25.30;5.25;;;;;;;11.80;83.12;99096.97;5037628;28;20071;-77
2021/01/31 01:13:13;;;;;;;17.25;4.13;;;;;;;11.79;83.19;99106.38;5055043;28;20056;-75
2021/01/31 01:15:43;;;;;;;16.23;3.85;;;;;;;11.68;83.21;99103.38;5038160;28;20052;-75
2021/01/31 01:18:10;;;;;;;14.80;3.80;;;;;;;11.61;84.28;99107.94;5022011;28;20052;-75
2021/01/31 01:20:37;;;;;;;20.92;4.45;;;;;;;11.97;82.53;99100.09;5054922;28;20049;-76
2021/01/31 01:23:04;;;;;;;14.75;3.63;;;;;;;11.55;83.42;99101.06;5054901;28;20369;-74
2021/01/31 01:25:31;;;;;;;17.88;4.13;;;;;;;11.51;83.86;99098.22;5055016;28;20045;-75
2021/01/31 01:27:58;;;;;;;16.25;4.00;;;;;;;11.49;84.84;99106.06;5054941;28;20380;-73
2021/01/31 01:30:29;;;;;;;15.60;3.75;;;;;;;11.48;85.30;99101.72;5054118;28;20044;-75
2021/01/31 01:32:58;;;;;;;18.25;3.80;;;;;;;11.60;84.48;99098.03;5054711;28;20048;-75
2021/01/31 01:35:26;;;;;;;14.23;3.75;;;;;;;11.68;84.24;99099.84;5054635;28;20056;-75
2021/01/31 01:37:53;;;;;;;21.13;4.00;;;;;;;11.68;84.15;99097.09;5055359;28;20052;-76
2021/01/31 01:40:35;;;;;;;14.68;4.43;;;;;;;11.68;84.22;99102.59;5055301;28;20055;-75
2021/01/31 01:43:04;;;;;;;14.85;3.92;;;;;;;11.71;84.00;99096.34;5055335;28;20044;-77
2021/01/31 01:45:31;;;;;;;13.80;3.15;;;;;;;11.68;83.47;99105.38;5055318;28;20048;-75
2021/01/31 01:48:06;;;;;;;12.93;3.40;;;;;;;11.52;84.12;99104.56;5055184;28;20064;-77
2021/01/31 01:50:38;;;;;;;15.50;3.83;;;;;;;11.55;84.40;99107.41;5037613;28;20052;-75
2021/01/31 01:53:07;;;;;;;13.23;3.30;;;;;;;11.44;84.86;99111.06;5020036;28;20523;-75
2021/01/31 01:55:39;;;;;;;17.85;4.13;;;;;;;11.40;85.42;99112.94;5037357;28;20041;-76
2021/01/31 01:58:11;;;;;;;15.23;3.80;;;;;;;11.41;85.20;99103.50;5036326;28;20057;-74
2021/01/31 02:00:42;;;;;;;16.65;4.00;;;;;;;11.38;85.13;99113.28;5037277;28;20049;-77
2021/01/31 02:03:11;;;;;;;;;;;;;;;11.53;84.65;99108.91;5037905;28;20068;-76
2021/01/31 02:05:38;;;;;;;13.82;4.07;;;;;;;11.67;84.33;99118.34;5054135;28;19928;-76
2021/01/31 02:08:06;;;;;;;14.60;3.40;;;;;;;11.53;84.32;99123.50;5036463;28;20052;-76
2021/01/31 02:10:33;;;;;;;15.70;3.78;;;;;;;11.64;84.12;99109.94;5054709;28;20057;-76
2021/01/31 02:13:02;;;;;;;13.77;3.58;;;;;;;11.49;84.87;99108.81;5053558;28;20049;-77
2021/01/31 02:15:29;;;;;;;15.55;3.75;;;;;;;11.79;84.00;99117.41;5036089;28;20543;-76
2021/01/31 02:18:27;;;;;;;15.80;3.35;;;;;;;11.71;83.97;99121.19;5053878;28;20044;-75
2021/01/31 02:21:09;;;;;;;17.08;3.42;;;;;;;11.66;83.83;99118.72;5054791;28;20056;-76
2021/01/31 02:24:07;;;;;;;16.38;3.72;;;;;;;11.71;83.84;99127.50;5055285;28;20053;-77
2021/01/31 02:27:00;;;;;;;13.23;4.28;;;;;;;11.14;85.43;99130.03;5054914;28;20053;-76
2021/01/31 02:30:01;;;;;;;12.55;6.25;;;;;;;10.65;88.82;99118.50;4973765;28;20495;-76
2021/01/31 02:32:46;;;;;;;10.95;7.28;;;;;;;10.48;89.74;99113.31;4957059;28;20050;-77
2021/01/31 02:35:17;;;;;;;13.35;8.80;;;;;;;10.39;90.01;99120.91;4973246;28;20058;-77
2021/01/31 02:37:44;;;;;;;12.45;8.70;;;;;;;9.99;91.81;99123.66;4973837;28;20051;-76
2021/01/31 02:40:16;;;;;;;12.18;9.18;;;;;;;9.99;92.27;99120.09;4972818;28;20450;-76
2021/01/31 02:43:02;;;;;;;13.60;8.98;;;;;;;9.96;92.52;99124.38;4941078;28;20050;-75
2021/01/31 02:45:35;;;;;;;13.38;9.50;;;;;;;10.08;92.82;99134.53;4972371;28;20523;-76
2021/01/31 02:48:21;;;;;;;15.50;10.38;;;;;;;10.23;92.07;99144.03;4973087;28;20046;-75
2021/01/31 02:50:57;;;;;;;15.68;10.93;;;;;;;10.00;92.48;99152.78;4941656;28;20051;-78
2021/01/31 02:53:34;;;;;;;14.68;11.60;;;;;;;9.92;92.75;99156.47;4973184;28;20553;-77
2021/01/31 02:56:07;;;;;;;16.48;10.73;;;;;;;10.03;93.46;99159.53;4956461;28;20054;-74
2021/01/31 02:58:46;;;;;;;16.27;11.65;;;;;;;9.68;94.03;99150.19;4973097;28;20174;-77
2021/01/31 03:01:28;;;;;;;17.63;11.82;;;;;;;9.58;94.64;99153.41;4972432;28;20055;-76
2021/01/31 03:04:00;;;;;;;19.05;12.88;;;;;;;9.67;94.34;99160.41;4972673;28;20066;-74
2021/01/31 03:06:30;;;;;;;18.20;12.63;;;;;;;9.42;95.36;99149.75;5003291;28;20049;-75
2021/01/31 03:09:29;;;;;;;19.05;11.95;;;;;;;9.77;94.23;99159.13;5019767;28;20060;-77
2021/01/31 03:12:19;;;;;;;14.40;10.68;;;;;;;9.57;93.42;99160.06;5049874;28;20068;-77
2021/01/31 03:14:54;;;;;;;17.08;10.35;;;;;;;9.48;93.65;99162.94;5035215;28;20049;-76
2021/01/31 03:17:31;;;;;;;15.00;9.55;;;;;;;9.38;94.08;99159.84;5035331;28;20060;-76
2021/01/31 03:20:18;;;;;;;12.70;9.23;;;;;;;9.42;93.63;99155.25;5035536;28;20052;-74
2021/01/31 03:27:09;;;;;;;15.50;10.55;;;;;;;8.67;94.52;99168.41;5052861;28;20053;-77
2021/01/31 03:29:36;;;;;;;17.67;11.88;;;;;;;8.47;95.85;99173.94;5035846;28;20045;-76
2021/01/31 03:32:08;;;;;;;18.38;12.55;;;;;;;8.39;97.42;99180.28;5053462;28;20052;-76
2021/01/31 03:34:46;;;;;;;23.73;15.52;;;;;;;8.40;97.99;99181.91;5035168;28;20392;-77
2021/01/31 03:37:15;;;;;;;21.50;15.95;;;;;;;8.47;97.09;99180.22;5035514;28;20055;-73
2021/01/31 03:44:11;;;;;;;24.25;14.95;;;;;;;8.76;95.10;99185.59;5053337;28;20045;-74
2021/01/31 03:46:53;;;;;;;31.83;18.30;;;;;;;8.47;94.84;99198.63;5052579;28;20396;-74
2021/01/31 03:49:26;;;;;;;27.50;19.08;;;;;;;8.45;95.12;99198.16;5035779;28;20396;-74
2021/01/31 03:51:53;;;;;;;30.25;19.10;;;;;;;8.73;94.70;99199.19;5053384;28;20400;-77
2021/01/31 03:59:01;;;;;;;29.65;19.65;;;;;;;8.77;92.27;99198.16;5053628;28;20476;-77
2021/01/31 04:01:29;;;;;;;28.10;20.77;;;;;;;8.32;93.11;99211.00;5035008;28;20064;-72
2021/01/31 04:04:06;;;;;;;37.10;21.73;;;;;;;8.62;93.13;99218.03;5035640;28;20049;-75
2021/01/31 04:06:36;;;;;;;29.70;20.25;;;;;;;8.74;91.35;99220.81;5035187;28;20396;-75
2021/01/31 04:09:07;;;;;;;36.53;21.13;;;;;;;8.28;90.85;99223.00;5052479;28;20053;-74
2021/01/31 04:11:41;;;;;;;30.92;20.45;;;;;;;8.14;91.63;99227.91;5018325;28;20053;-74
2021/01/31 04:14:21;;;;;;;33.20;22.00;;;;;;;7.98;91.92;99233.19;5052854;28;20045;-75
2021/01/31 04:16:50;;;;;;;33.28;22.65;;;;;;;7.82;93.76;99232.97;5034877;28;20056;-73
2021/01/31 04:19:18;;;;;;;31.83;22.60;;;;;;;8.10;93.14;99246.16;5051771;28;20404;-77
2021/01/31 04:21:46;;;;;;;36.75;23.02;;;;;;;8.05;91.70;99240.88;5052832;28;20060;-74
2021/01/31 04:24:13;;;;;;;33.88;22.55;;;;;;;7.53;93.63;99246.63;5035120;28;20049;-74
2021/01/31 04:26:40;;;;;;;37.75;24.42;;;;;;;7.68;93.71;99250.75;5052570;28;20068;-74
2021/01/31 04:29:07;;;;;;;34.53;22.95;;;;;;;7.76;92.91;99261.69;5052676;28;20052;-75
2021/01/31 04:31:35;;;;;;;34.85;23.05;;;;;;;7.47;93.02;99260.84;5052821;28;20045;-74
2021/01/31 04:34:01;;;;;;;34.63;22.63;;;;;;;7.58;93.02;99273.06;5052869;28;20041;-74
2021/01/31 04:36:29;;;;;;;32.58;21.45;;;;;;;7.58;91.54;99275.78;5018164;28;20060;-76
2021/01/31 04:38:56;;;;;;;33.40;22.90;;;;;;;7.44;92.67;99280.69;5034284;28;20049;-77
2021/01/31 04:41:38;;;;;;;33.08;22.83;;;;;;;7.81;91.49;99288.88;5052902;28;20048;-77
2021/01/31 04:44:06;;;;;;;30.48;20.83;;;;;;;7.76;90.56;99294.56;5035094;28;20120;-79
2021/01/31 04:46:45;;;;;;;32.22;21.80;;;;;;;7.45;90.46;99296.78;5034935;28;20041;-76
2021/01/31 04:49:25;;;;;;;36.78;23.58;;;;;;;6.99;92.73;99296.72;5032058;28;20046;-77
2021/01/31 04:52:13;;;;;;;32.17;21.55;;;;;;;7.15;92.36;99303.28;5034179;28;20057;-74
2021/01/31 04:55:03;;;;;;;39.80;23.23;;;;;;;6.85;93.32;99309.81;5033091;28;20048;-78
2021/01/31 04:57:39;;;;;;;35.60;21.85;;;;;;;6.87;93.60;99301.25;5033184;28;20400;-75
2021/01/31 05:00:17;;;;;;;33.40;22.23;;;;;;;7.40;93.91;99312.59;5031453;28;20053;-78
2021/01/31 05:02:48;;;;;;;32.78;21.40;;;;;;;7.68;91.74;99308.31;5031191;28;20394;-74
2021/01/31 05:05:21;;;;;;;29.77;20.30;;;;;;;7.46;90.00;99309.34;5032738;28;20056;-75
2021/01/31 05:07:52;;;;;;;29.13;20.25;;;;;;;7.61;90.14;99317.03;5034366;28;20058;-75
2021/01/31 05:10:20;;;;;;;29.30;19.35;;;;;;;7.46;89.44;99325.00;5034797;28;20413;-74
2021/01/31 05:13:11;;;;;;;29.38;19.77;;;;;;;7.64;89.67;99321.03;5035913;28;20064;-76
2021/01/31 05:15:47;;;;;;;29.85;19.63;;;;;;;7.58;90.08;99327.84;5034928;28;20384;-74
2021/01/31 05:18:16;;;;;;;28.25;19.98;;;;;;;7.57;88.65;99326.22;5035186;28;20060;-77
2021/01/31 05:20:47;;;;;;;28.35;18.83;;;;;;;7.70;88.36;99325.22;5018485;28;20042;-74
2021/01/31 05:27:29;;;;;;;27.23;17.73;;;;;;;7.45;89.37;99332.41;5035293;28;20057;-74
2021/01/31 05:29:56;;;;;;;26.52;18.88;;;;;;;7.40;89.24;99331.75;5035470;28;20068;-75
2021/01/31 05:32:23;;;;;;;29.35;19.77;;;;;;;7.28;90.03;99332.44;5033946;28;20507;-75
2021/01/31 05:34:52;;;;;;;31.17;20.70;;;;;;;7.46;90.19;99334.00;5035587;28;20052;-75
2021/01/31 05:37:28;;;;;;;26.20;18.48;;;;;;;7.76;88.83;99337.59;5035429;28;20052;-78
2021/01/31 05:44:25;;;;;;;27.50;18.73;;;;;;;7.53;89.59;99360.91;5035674;28;20378;-74
2021/01/31 05:47:01;;;;;;;29.15;18.35;;;;;;;7.55;89.65;99367.66;5021365;28;20113;-75
2021/01/31 05:49:41;;;;;;;25.42;17.95;;;;;;;7.45;90.10;99365.28;5037479;28;20055;-75
2021/01/31 05:52:28;;;;;;;23.30;17.02;;;;;;;7.62;89.32;99367.16;5036458;28;20053;-75
2021/01/31 05:54:56;;;;;;;22.85;17.05;;;;;;;7.86;88.64;99370.16;5054807;28;20048;-74
2021/01/31 05:57:36;;;;;;;24.02;17.67;;;;;;;7.85;88.19;99371.28;5037105;28;20057;-74
2021/01/31 06:00:33;;;;;;;23.90;17.10;;;;;;;7.66;88.17;99365.38;5055023;28;20060;-76
2021/01/31 06:03:03;;;;;;;25.73;17.52;;;;;;;7.82;88.88;99380.16;4957572;28;20055;-76
2021/01/31 06:05:31;;;;;;;25.30;17.35;;;;;;;7.23;90.45;99378.34;4973461;28;20058;-77
2021/01/31 06:08:01;;;;;;;25.67;17.60;;;;;;;7.45;90.47;99378.97;4973717;28;20074;-78
2021/01/31 06:10:29;;;;;;;24.40;17.35;;;;;;;7.51;89.84;99376.88;4957258;28;20062;-77
2021/01/31 06:13:18;;;;;;;26.45;18.15;;;;;;;7.42;89.91;99378.81;4957534;28;20051;-76
2021/01/31 06:15:53;;;;;;;25.92;17.40;;;;;;;7.51;89.63;99379.59;4957586;28;20047;-74
2021/01/31 06:18:27;;;;;;;28.35;17.88;;;;;;;7.39;89.69;99371.25;4973189;28;20054;-74
2021/01/31 06:21:08;;;;;;;26.15;18.52;;;;;;;7.55;89.76;99367.66;4958304;28;20059;-74
2021/01/31 06:28:11;;;;;;;26.65;18.35;;;;;;;7.25;91.57;99378.84;4973533;28;20533;-76
2021/01/31 06:30:47;;;;;;;26.58;18.92;;;;;;;7.39;91.45;99379.47;4957814;28;20055;-74
2021/01/31 06:33:14;;;;;;;26.35;18.55;;;;;;;7.70;89.83;99377.31;4958000;28;20061;-76
2021/01/31 06:35:42;;;;;;;26.95;18.85;;;;;;;8.00;89.00;99390.72;4976045;28;20055;-76
2021/01/31 06:38:18;;;;;;;24.50;17.10;;;;;;;7.81;88.00;99401.28;4974594;28;20435;-73
2021/01/31 06:45:20;;;;;;;25.33;18.20;;;;;;;7.46;90.92;99391.53;5054217;28;20547;-75
2021/01/31 06:48:05;;;;;;;24.85;17.65;;;;;;;7.63;89.94;99385.22;5035246;28;20057;-76
2021/01/31 06:50:50;;;;;;;25.33;17.45;;;;;;;8.07;88.87;99392.97;5053096;28;20060;-78
2021/01/31 06:53:26;;;;;;;26.98;17.15;;;;;;;7.92;87.69;99385.28;5019407;28;20056;-76
2021/01/31 07:00:14;;;;;;;21.83;15.10;;;;;;;8.07;87.40;99392.97;5053503;28;20045;-77
2021/01/31 07:03:10;;;;;;;20.67;14.57;;;;;;;8.21;87.17;99393.53;5053996;28;20492;-76
2021/01/31 07:05:55;;;;;;;23.00;15.82;;;;;;;8.04;86.92;99399.09;5053905;28;20056;-77
2021/01/31 07:08:38;;;;;;;21.35;15.82;;;;;;;8.06;87.28;99401.50;5054273;28;20055;-75
2021/01/31 07:15:21;;;;;;;23.20;16.00;;;;;;;7.89;88.66;99410.63;5053320;28;20089;-75
2021/01/31 07:17:55;;;;;;;23.23;16.58;;;;;;;7.72;89.17;99405.97;5035373;28;20064;-75
2021/01/31 07:20:27;;;;;;;28.20;18.30;;;;;;;7.53;90.27;99399.28;5018882;28;20369;-76
2021/01/31 07:23:13;;;;;;;27.05;17.90;;;;;;;7.33;91.76;99405.41;5019452;28;20041;-77
2021/01/31 07:30:31;;;;;;;22.58;16.40;;;;;;;7.86;90.87;99406.56;5052909;28;20045;-75
2021/01/31 07:33:20;;;;;;;19.73;14.57;;;;;;;7.80;90.11;99405.16;5052293;28;20056;-75
2021/01/31 07:35:56;;;;;;;19.83;14.90;;;;;;;7.48;90.73;99416.66;5035119;28;20057;-74
2021/01/31 07:38:38;;;;;;;21.23;14.30;;;;;;;7.33;91.25;99417.16;5053456;28;20056;-73
2021/01/31 07:41:06;;;;;;;20.95;15.23;;;;;;;7.13;92.77;99422.50;5036130;28;20364;-74
2021/01/31 07:43:35;;;;;;;20.42;14.32;;;;;;;7.09;92.96;99414.13;5018391;28;20061;-74
2021/01/31 07:46:04;;;;;;;;;;;;;;;7.29;92.90;99410.72;5035527;28;20055;-75
2021/01/31 07:48:40;;;;;;;22.55;14.52;;;;;;;7.67;91.22;99410.84;5050619;28;19932;-74
2021/01/31 07:51:08;;;;;;;22.52;14.40;;;;;;;7.49;90.78;99423.78;5052835;28;20048;-73
2021/01/31 07:53:42;;;;;;;20.02;14.13;;;;;;;7.43;91.86;99427.78;5035784;28;20045;-75
2021/01/31 07:56:23;;;;;;;21.35;15.13;;;;;;;7.61;91.44;99431.31;5052144;28;20048;-76
2021/01/31 07:58:52;;;;;;;21.73;14.65;;;;;;;7.43;91.46;99441.50;5052735;28;20500;-74
2021/01/31 08:01:37;;;;;;;21.17;13.75;;;;;;;7.66;90.93;99444.84;5034702;28;20053;-73
2021/01/31 08:04:16;;;;;;;19.70;13.07;;;;;;;7.71;89.31;99456.44;5052917;28;20048;-74
2021/01/31 08:06:45;;;;;;;17.52;12.25;;;;;;;7.64;89.85;99452.56;5052000;28;20056;-78
2021/01/31 08:13:48;;;;;;;15.27;11.25;;;;;;;7.92;88.49;99453.81;5052692;28;20049;-77
2021/01/31 08:16:43;;;;;;;15.73;11.65;;;;;;;7.88;87.86;99463.81;5034615;28;20052;-78
2021/01/31 08:19:10;;;;;;;16.20;11.02;;;;;;;7.68;87.94;99468.06;5053011;28;20052;-78
2021/01/31 08:22:00;;;;;;;16.00;12.27;;;;;;;7.80;87.71;99468.19;5052343;28;20045;-76
2021/01/31 08:25:05;;;;;;;16.25;11.60;;;;;;;7.69;87.10;99466.91;5034612;28;20049;-79
2021/01/31 08:27:38;;;;;;;14.60;11.27;;;;;;;7.80;87.96;99470.94;5052221;28;20542;-78
2021/01/31 08:30:13;;;;;;;13.90;10.52;;;;;;;7.80;86.93;99478.34;5018319;28;20056;-77
2021/01/31 08:33:02;;;;;;;16.05;10.02;;;;;;;7.94;85.83;99466.06;5051987;28;20057;-77
2021/01/31 08:35:32;;;;;;;13.75;10.60;;;;;;;7.71;86.90;99469.34;5052710;28;20052;-79
2021/01/31 08:38:21;;;;;;;15.07;10.95;;;;;;;8.01;85.36;99460.09;5052567;28;20084;-79
2021/01/31 08:43:41;;;;;;;13.48;10.00;;;;;;;8.18;84.75;99454.53;5056410;28;20460;-77
2021/01/31 08:46:19;;;;;;;14.40;9.85;;;;;;;8.16;85.05;99456.81;5055705;28;20045;-78
2021/01/31 08:49:08;;;;;;;13.57;9.60;;;;;;;8.35;83.96;99465.47;5056180;28;20057;-75
2021/01/31 08:51:38;;;;;;;13.82;9.93;;;;;;;8.19;84.06;99466.31;5055260;28;20056;-76
2021/01/31 08:58:32;;;;;;;17.55;10.50;;;;;;;8.18;84.08;99454.53;5055996;28;20045;-78
2021/01/31 09:00:59;;;;;;;13.27;9.93;;;;;;;8.35;83.80;99456.47;5038349;28;20049;-76
2021/01/31 09:03:26;;;;;;;14.48;10.02;;;;;;;8.38;82.71;99447.56;5038278;28;20488;-75
2021/01/31 09:05:53;;;;;;;14.52;10.70;;;;;;;8.34;83.34;99450.16;5055130;28;20045;-77
2021/01/31 09:08:20;;;;;;;12.90;10.13;;;;;;;8.41;83.51;99446.91;5054970;28;20392;-76
2021/01/31 09:15:25;;;;;;;22.60;14.90;;;;;;;8.44;83.42;99438.03;5038102;28;20533;-76
2021/01/31 09:18:05;;;;;;;12.83;10.43;;;;;;;8.38;83.10;99442.88;5038337;28;20480;-76
2021/01/31 09:20:33;;;;;;;14.70;10.75;;;;;;;8.27;83.71;99433.41;5037239;28;20045;-77
2021/01/31 09:23:06;;;;;;;14.40;10.63;;;;;;;8.57;82.25;99434.22;5055462;28;20060;-74
2021/01/31 09:25:35;;;;;;;14.10;10.32;;;;;;;8.62;82.70;99428.56;5038082;28;20048;-76
2021/01/31 09:28:15;;;;;;;15.07;11.40;;;;;;;8.64;82.06;99427.09;5055928;28;20059;-79
2021/01/31 09:30:42;;;;;;;18.83;12.13;;;;;;;8.69;81.47;99435.13;5037626;28;20049;-79
2021/01/31 09:33:13;;;;;;;15.98;11.93;;;;;;;8.68;81.33;99429.97;5054980;28;20053;-75
2021/01/31 09:35:40;;;;;;;17.77;12.18;;;;;;;8.53;81.87;99428.59;5037397;28;20052;-75
2021/01/31 09:38:14;;;;;;;15.40;11.70;;;;;;;8.59;81.95;99423.72;5051952;28;20057;-74
2021/01/31 09:40:41;;;;;;;23.05;12.48;;;;;;;8.81;81.72;99429.72;5050106;28;20049;-77
2021/01/31 09:43:15;;;;;;;13.82;10.98;;;;;;;8.55;81.60;99433.75;5020457;28;20044;-74
2021/01/31 09:45:52;;;;;;;21.13;12.18;;;;;;;8.52;82.42;99437.97;5038518;28;20045;-74
2021/01/31 09:48:24;;;;;;;17.00;11.60;;;;;;;8.53;81.89;99449.75;5012248;28;20060;-76
2021/01/31 09:50:59;;;;;;;16.95;12.85;;;;;;;8.18;83.02;99440.00;5034674;28;20053;-76
2021/01/31 09:53:38;;;;;;;17.63;12.57;;;;;;;8.21;84.53;99444.88;5035106;28;20049;-73
2021/01/31 09:56:34;;;;;;;14.27;11.68;;;;;;;8.64;82.60;99438.06;5032991;28;20054;-76
2021/01/31 09:59:36;;;;;;;15.25;11.18;;;;;;;8.63;82.23;99441.16;5034572;28;20061;-77
2021/01/31 10:02:12;;;;;;;15.38;10.85;;;;;;;8.69;82.14;99446.13;5035107;28;20068;-75
2021/01/31 10:04:42;;;;;;;18.10;11.60;;;;;;;8.71;81.38;99441.09;5034077;28;20065;-75
2021/01/31 10:07:14;;;;;;;14.50;11.38;;;;;;;8.25;83.05;99435.66;5034000;28;20397;-74
2021/01/31 10:09:43;;;;;;;17.05;10.98;;;;;;;8.41;83.24;99436.72;5033858;28;20064;-74
2021/01/31 10:13:21;;;;;;;15.73;10.52;;;;;;;8.50;82.40;99432.00;5034402;28;20037;-73
2021/01/31 10:15:53;;;;;;;17.38;9.93;;;;;;;8.79;81.54;99437.50;5032880;28;20064;-73
2021/01/31 10:18:31;;;;;;;14.30;10.23;;;;;;;8.94;79.95;99436.09;5032663;28;20125;-73
2021/01/31 10:21:16;;;;;;;15.35;10.07;;;;;;;8.93;80.02;99421.56;5032323;28;20056;-75
2021/01/31 10:23:44;;;;;;;12.32;9.15;;;;;;;8.92;79.72;99419.16;5034484;28;20433;-72
2021/01/31 10:31:00;;;;;;;14.68;10.20;;;;;;;9.08;79.98;99415.47;5034640;28;20205;-73
2021/01/31 10:33:48;;;;;;;14.68;11.10;;;;;;;9.15;79.10;99414.94;5033847;28;20053;-75
2021/01/31 10:36:44;;;;;;;14.60;11.65;;;;;;;8.86;80.53;99406.75;5034042;28;20052;-75
2021/01/31 10:39:11;;;;;;;17.35;11.70;;;;;;;8.97;81.48;99411.53;5034694;28;20405;-74
2021/01/31 10:41:39;;;;;;;16.17;11.73;;;;;;;8.99;80.19;99395.53;5032621;28;20069;-73
2021/01/31 10:44:09;;;;;;;16.85;12.90;;;;;;;9.03;80.09;99392.91;5034150;28;20187;-74
2021/01/31 10:46:40;;;;;;;17.45;13.18;;;;;;;9.31;80.09;99393.16;5033736;28;20057;-76
2021/01/31 10:49:07;;;;;;;16.85;12.55;;;;;;;9.28;79.76;99394.63;5054760;28;20057;-75
2021/01/31 10:51:36;;;;;;;18.20;13.07;;;;;;;9.16;79.67;99388.25;5053984;28;20052;-73
2021/01/31 10:54:04;;;;;;;18.67;13.80;;;;;;;9.25;80.13;99387.06;5015029;28;20067;-76
2021/01/31 10:56:31;;;;;;;17.58;13.70;;;;;;;9.19;80.82;99371.13;5053805;28;20041;-75
2021/01/31 10:59:02;;;;;;;20.88;15.15;;;;;;;9.28;80.66;99363.59;5053625;28;20060;-75
2021/01/31 11:01:29;;;;;;;19.92;14.73;;;;;;;9.31;80.39;99371.19;5034955;28;20045;-74
2021/01/31 11:03:57;;;;;;;20.63;15.32;;;;;;;9.64;80.44;99375.50;5035096;28;20045;-76
2021/01/31 11:06:25;;;;;;;22.35;15.15;;;;;;;9.42;81.03;99377.84;5053446;28;20060;-75
2021/01/31 11:08:52;;;;;;;23.65;16.92;;;;;;;9.32;81.15;99381.00;5030504;28;20408;-76
2021/01/31 11:11:22;;;;;;;;;;;;;;;9.39;81.21;99378.53;5048954;28;20507;-74
2021/01/31 11:13:58;;;;;;;23.05;16.90;;;;;;;9.43;80.58;99379.47;5053509;28;19921;-74
2021/01/31 11:16:37;;;;;;;25.02;18.33;;;;;;;9.29;81.21;99379.75;5051560;28;20052;-75
2021/01/31 11:19:10;;;;;;;26.02;18.08;;;;;;;9.38;81.04;99377.72;5036117;28;20396;-75
2021/01/31 11:21:40;;;;;;;23.98;17.85;;;;;;;9.81;79.56;99372.59;5052125;28;20048;-73
2021/01/31 11:24:07;;;;;;;23.25;17.45;;;;;;;9.79;79.40;99368.56;5052055;28;20045;-72
2021/01/31 11:26:52;;;;;;;24.70;17.77;;;;;;;10.00;78.82;99372.84;5048997;28;20045;-73
2021/01/31 11:29:39;;;;;;;26.80;17.92;;;;;;;9.90;78.72;99367.00;5052449;28;20080;-71
2021/01/31 11:32:06;;;;;;;23.05;17.90;;;;;;;9.85;78.86;99353.47;5034711;28;20445;-72
2021/01/31 11:34:35;;;;;;;21.23;17.85;;;;;;;9.93;78.88;99350.59;5033955;28;20060;-71
2021/01/31 11:37:03;;;;;;;24.38;19.58;;;;;;;9.86;78.57;99355.88;5034805;28;20056;-72
2021/01/31 11:39:33;;;;;;;26.10;19.77;;;;;;;9.81;79.27;99358.84;5051083;28;20408;-72
2021/01/31 11:42:01;;;;;;;24.98;18.95;;;;;;;9.79;79.31;99358.38;5051037;28;20068;-71
2021/01/31 11:44:29;;;;;;;24.38;19.80;;;;;;;10.12;78.45;99363.81;5052853;28;20401;-70
2021/01/31 11:46:56;;;;;;;25.92;19.83;;;;;;;10.34;77.99;99357.06;5052139;28;20064;-73
2021/01/31 11:49:31;;;;;;;27.15;20.45;;;;;;;10.31;77.42;99346.72;5052452;28;20057;-73
2021/01/31 11:51:58;;;;;;;25.45;20.13;;;;;;;10.40;76.88;99348.22;5053013;28;20427;-72
2021/01/31 11:54:45;;;;;;;27.95;21.30;;;;;;;10.36;77.68;99341.81;5052334;28;20053;-72
2021/01/31 11:57:14;;;;;;;28.33;22.65;;;;;;;10.36;77.99;99338.25;5051056;28;20045;-73
2021/01/31 11:59:45;;;;;;;29.60;21.92;;;;;;;10.06;78.93;99332.13;5052080;28;20056;-72
2021/01/31 12:02:13;;;;;;;26.13;20.95;;;;;;;10.27;78.78;99323.81;5052825;28;20052;-73
2021/01/31 12:04:40;;;;;;;29.90;21.60;;;;;;;10.17;79.07;99319.56;5052310;28;20056;-71
2021/01/31 12:07:08;;;;;;;28.25;21.60;;;;;;;10.20;79.08;99311.44;5034463;28;20128;-76
2021/01/31 12:09:36;;;;;;;28.70;22.55;;;;;;;10.18;79.64;99310.97;5016465;28;20527;-72
2021/01/31 12:12:03;;;;;;;27.63;21.83;;;;;;;10.42;79.07;99306.59;5035138;28;20049;-73
2021/01/31 12:14:30;;;;;;;28.50;21.90;;;;;;;10.44;79.08;99296.84;5054241;28;20512;-73
2021/01/31 12:17:16;;;;;;;30.20;22.08;;;;;;;10.62;78.52;99297.38;5063637;28;20056;-75
2021/01/31 12:19:49;;;;;;;29.27;22.98;;;;;;;10.53;78.49;99292.00;5023007;28;20057;-73
2021/01/31 12:22:23;;;;;;;27.25;22.10;;;;;;;10.46;78.62;99296.50;5057426;28;20056;-73
2021/01/31 12:24:50;;;;;;;29.08;23.00;;;;;;;10.47;79.03;99287.09;5058977;28;20041;-72
2021/01/31 12:27:25;;;;;;;31.20;22.93;;;;;;;10.53;78.19;99275.47;5058981;28;20053;-73
2021/01/31 12:29:55;;;;;;;29.60;22.83;;;;;;;10.43;79.05;99269.66;5062218;28;20056;-75
2021/01/31 12:32:23;;;;;;;33.08;23.67;;;;;;;10.54;78.63;99271.59;5025697;28;20396;-74
2021/01/31 12:34:53;;;;;;;31.08;23.73;;;;;;;10.50;78.93;99267.09;5054618;28;20060;-74
2021/01/31 12:37:21;;;;;;;34.22;25.05;;;;;;;10.39;79.51;99264.03;5039276;28;20051;-73
2021/01/31 12:39:48;;;;;;;34.72;26.38;;;;;;;10.62;79.10;99256.88;5060297;28;20061;-74
2021/01/31 12:42:15;;;;;;;31.75;24.25;;;;;;;10.48;79.44;99255.66;5042795;28;20068;-74
2021/01/31 12:44:47;;;;;;;31.17;24.35;;;;;;;10.58;79.70;99253.25;5062276;28;20053;-74
2021/01/31 12:47:17;;;;;;;30.45;24.45;;;;;;;10.49;79.42;99251.75;5042334;28;20045;-73
2021/01/31 12:49:54;;;;;;;32.10;24.15;;;;;;;10.69;78.91;99239.75;5058407;28;20060;-73
2021/01/31 12:52:39;;;;;;;33.88;25.00;;;;;;;10.78;78.64;99232.16;5059130;28;20112;-73
2021/01/31 12:55:10;;;;;;;31.58;24.02;;;;;;;10.92;77.88;99214.06;5059183;28;20056;-76
2021/01/31 12:57:38;;;;;;;34.85;24.60;;;;;;;10.93;77.57;99207.41;5023377;28;20045;-73
2021/01/31 13:00:06;;;;;;;33.22;24.75;;;;;;;10.81;78.58;99201.16;5024330;28;20571;-72
2021/01/31 13:02:34;;;;;;;34.47;24.55;;;;;;;10.68;79.23;99203.16;5056646;28;20056;-73
2021/01/31 13:05:07;;;;;;;36.78;24.27;;;;;;;10.70;79.37;99191.81;5037766;28;20053;-74